sensor_id;sensor_type;location;lat;lon;timestamp;temperature;humidity
36292;DHT22;22327;51.208;6.418;2023-09-08T00:01:51;23.10;84.30
36292;DHT22;22327;51.208;6.418;2023-09-08T00:04:52;23.00;84.60
36292;DHT22;22327;51.208;6.418;2023-09-08T00:07:53;23.00;85.40
36292;DHT22;22327;51.208;6.418;2023-09-08T00:10:53;23.00;86.00
36292;DHT22;22327;51.208;6.418;2023-09-08T00:13:54;23.00;86.40
36292;DHT22;22327;51.208;6.418;2023-09-08T00:16:54;23.00;86.40
36292;DHT22;22327;51.208;6.418;2023-09-08T00:19:57;23.00;86.70
36292;DHT22;22327;51.208;6.418;2023-09-08T00:22:58;23.00;86.80
36292;DHT22;22327;51.208;6.418;2023-09-08T00:25:58;23.00;86.90
36292;DHT22;22327;51.208;6.418;2023-09-08T00:28:59;23.00;87.30
36292;DHT22;22327;51.208;6.418;2023-09-08T00:31:59;23.00;87.40
36292;DHT22;22327;51.208;6.418;2023-09-08T00:35:00;23.10;87.50
36292;DHT22;22327;51.208;6.418;2023-09-08T00:38:02;23.10;87.30
36292;DHT22;22327;51.208;6.418;2023-09-08T00:41:04;23.10;88.00
36292;DHT22;22327;51.208;6.418;2023-09-08T00:44:05;23.20;86.90
36292;DHT22;22327;51.208;6.418;2023-09-08T00:47:06;23.20;86.80
36292;DHT22;22327;51.208;6.418;2023-09-08T00:50:07;23.40;86.80
36292;DHT22;22327;51.208;6.418;2023-09-08T00:53:08;23.40;86.60
36292;DHT22;22327;51.208;6.418;2023-09-08T00:56:09;23.30;86.60
36292;DHT22;22327;51.208;6.418;2023-09-08T00:59:10;23.40;86.60
36292;DHT22;22327;51.208;6.418;2023-09-08T01:02:11;23.50;86.30
36292;DHT22;22327;51.208;6.418;2023-09-08T01:05:12;23.50;86.20
36292;DHT22;22327;51.208;6.418;2023-09-08T01:08:15;23.40;86.20
36292;DHT22;22327;51.208;6.418;2023-09-08T01:11:18;23.30;86.70
36292;DHT22;22327;51.208;6.418;2023-09-08T01:14:19;23.30;86.80
36292;DHT22;22327;51.208;6.418;2023-09-08T01:17:20;23.40;86.60
36292;DHT22;22327;51.208;6.418;2023-09-08T01:24:21;23.40;86.60
36292;DHT22;22327;51.208;6.418;2023-09-08T01:27:29;23.20;87.00
36292;DHT22;22327;51.208;6.418;2023-09-08T01:30:31;23.20;87.40
36292;DHT22;22327;51.208;6.418;2023-09-08T01:33:33;23.10;87.60
36292;DHT22;22327;51.208;6.418;2023-09-08T01:36:36;23.10;87.90
36292;DHT22;22327;51.208;6.418;2023-09-08T01:39:37;23.10;88.10
36292;DHT22;22327;51.208;6.418;2023-09-08T01:42:38;23.10;88.30
36292;DHT22;22327;51.208;6.418;2023-09-08T01:45:39;23.10;88.10
36292;DHT22;22327;51.208;6.418;2023-09-08T01:48:40;23.10;88.30
36292;DHT22;22327;51.208;6.418;2023-09-08T01:51:40;23.20;87.90
36292;DHT22;22327;51.208;6.418;2023-09-08T01:54:41;23.20;87.80
36292;DHT22;22327;51.208;6.418;2023-09-08T01:57:41;23.20;87.60
36292;DHT22;22327;51.208;6.418;2023-09-08T02:00:42;23.20;87.70
36292;DHT22;22327;51.208;6.418;2023-09-08T02:03:42;23.20;87.70
36292;DHT22;22327;51.208;6.418;2023-09-08T02:06:43;23.20;87.60
36292;DHT22;22327;51.208;6.418;2023-09-08T02:09:43;23.10;87.90
36292;DHT22;22327;51.208;6.418;2023-09-08T02:12:44;23.10;87.90
36292;DHT22;22327;51.208;6.418;2023-09-08T02:15:44;23.10;88.10
36292;DHT22;22327;51.208;6.418;2023-09-08T02:18:45;23.00;88.20
36292;DHT22;22327;51.208;6.418;2023-09-08T02:21:46;23.00;88.30
36292;DHT22;22327;51.208;6.418;2023-09-08T02:24:46;23.00;88.50
36292;DHT22;22327;51.208;6.418;2023-09-08T02:27:47;23.00;88.80
36292;DHT22;22327;51.208;6.418;2023-09-08T02:30:47;22.90;89.10
36292;DHT22;22327;51.208;6.418;2023-09-08T02:33:49;23.00;89.00
36292;DHT22;22327;51.208;6.418;2023-09-08T02:36:49;23.00;89.40
36292;DHT22;22327;51.208;6.418;2023-09-08T02:39:51;23.00;89.10
36292;DHT22;22327;51.208;6.418;2023-09-08T02:42:51;23.00;89.20
36292;DHT22;22327;51.208;6.418;2023-09-08T02:45:52;23.00;89.40
36292;DHT22;22327;51.208;6.418;2023-09-08T02:48:53;22.90;89.80
36292;DHT22;22327;51.208;6.418;2023-09-08T02:51:53;22.80;89.90
36292;DHT22;22327;51.208;6.418;2023-09-08T02:54:54;22.80;90.10
36292;DHT22;22327;51.208;6.418;2023-09-08T02:57:54;22.80;90.00
36292;DHT22;22327;51.208;6.418;2023-09-08T03:00:55;22.80;90.00
36292;DHT22;22327;51.208;6.418;2023-09-08T03:03:56;22.70;90.20
36292;DHT22;22327;51.208;6.418;2023-09-08T03:06:57;22.50;90.60
36292;DHT22;22327;51.208;6.418;2023-09-08T03:09:57;22.40;90.70
36292;DHT22;22327;51.208;6.418;2023-09-08T03:12:57;22.40;90.80
36292;DHT22;22327;51.208;6.418;2023-09-08T03:16:05;22.30;91.00
36292;DHT22;22327;51.208;6.418;2023-09-08T03:19:06;22.20;91.40
36292;DHT22;22327;51.208;6.418;2023-09-08T03:22:06;22.10;91.70
36292;DHT22;22327;51.208;6.418;2023-09-08T03:25:07;22.00;91.90
36292;DHT22;22327;51.208;6.418;2023-09-08T03:28:08;22.00;92.00
36292;DHT22;22327;51.208;6.418;2023-09-08T03:31:08;21.90;92.20
36292;DHT22;22327;51.208;6.418;2023-09-08T03:34:09;21.90;92.10
36292;DHT22;22327;51.208;6.418;2023-09-08T03:37:09;21.90;92.30
36292;DHT22;22327;51.208;6.418;2023-09-08T03:40:10;21.80;92.40
36292;DHT22;22327;51.208;6.418;2023-09-08T03:43:11;21.70;92.80
36292;DHT22;22327;51.208;6.418;2023-09-08T03:46:11;21.60;93.00
36292;DHT22;22327;51.208;6.418;2023-09-08T03:49:12;21.50;93.30
36292;DHT22;22327;51.208;6.418;2023-09-08T03:52:12;21.50;93.50
36292;DHT22;22327;51.208;6.418;2023-09-08T03:55:13;21.40;93.90
36292;DHT22;22327;51.208;6.418;2023-09-08T03:58:14;21.30;93.90
36292;DHT22;22327;51.208;6.418;2023-09-08T04:01:16;21.30;94.00
36292;DHT22;22327;51.208;6.418;2023-09-08T04:04:16;21.30;94.00
36292;DHT22;22327;51.208;6.418;2023-09-08T04:07:18;21.30;94.10
36292;DHT22;22327;51.208;6.418;2023-09-08T04:10:18;21.20;94.40
36292;DHT22;22327;51.208;6.418;2023-09-08T04:13:19;21.00;94.80
36292;DHT22;22327;51.208;6.418;2023-09-08T04:16:19;20.90;95.20
36292;DHT22;22327;51.208;6.418;2023-09-08T04:19:20;21.00;95.30
36292;DHT22;22327;51.208;6.418;2023-09-08T04:22:20;21.00;95.30
36292;DHT22;22327;51.208;6.418;2023-09-08T04:25:21;20.90;95.30
36292;DHT22;22327;51.208;6.418;2023-09-08T04:28:22;20.90;95.40
36292;DHT22;22327;51.208;6.418;2023-09-08T04:31:22;20.90;95.40
36292;DHT22;22327;51.208;6.418;2023-09-08T04:34:23;20.70;95.80
36292;DHT22;22327;51.208;6.418;2023-09-08T04:37:23;20.60;96.20
36292;DHT22;22327;51.208;6.418;2023-09-08T04:40:24;20.50;96.50
36292;DHT22;22327;51.208;6.418;2023-09-08T04:43:24;20.50;96.60
36292;DHT22;22327;51.208;6.418;2023-09-08T04:46:25;20.50;96.70
36292;DHT22;22327;51.208;6.418;2023-09-08T04:49:25;20.50;96.60
36292;DHT22;22327;51.208;6.418;2023-09-08T04:52:26;20.50;96.80
36292;DHT22;22327;51.208;6.418;2023-09-08T04:55:26;20.50;97.10
36292;DHT22;22327;51.208;6.418;2023-09-08T04:58:27;20.50;97.10
36292;DHT22;22327;51.208;6.418;2023-09-08T05:01:28;20.60;97.10
36292;DHT22;22327;51.208;6.418;2023-09-08T05:04:30;20.60;97.10
36292;DHT22;22327;51.208;6.418;2023-09-08T05:07:30;20.70;97.20
36292;DHT22;22327;51.208;6.418;2023-09-08T05:10:31;20.70;97.10
36292;DHT22;22327;51.208;6.418;2023-09-08T05:13:31;20.80;97.00
36292;DHT22;22327;51.208;6.418;2023-09-08T05:16:32;20.90;96.90
36292;DHT22;22327;51.208;6.418;2023-09-08T05:19:45;20.90;96.90
36292;DHT22;22327;51.208;6.418;2023-09-08T05:22:46;20.90;96.90
36292;DHT22;22327;51.208;6.418;2023-09-08T05:25:46;21.10;97.40
36292;DHT22;22327;51.208;6.418;2023-09-08T05:28:47;21.50;97.10
36292;DHT22;22327;51.208;6.418;2023-09-08T05:31:48;21.90;96.40
36292;DHT22;22327;51.208;6.418;2023-09-08T05:34:48;22.40;95.60
36292;DHT22;22327;51.208;6.418;2023-09-08T05:37:49;22.70;94.30
36292;DHT22;22327;51.208;6.418;2023-09-08T05:40:49;23.00;94.30
36292;DHT22;22327;51.208;6.418;2023-09-08T05:43:50;23.40;93.50
36292;DHT22;22327;51.208;6.418;2023-09-08T05:46:50;24.00;92.80
36292;DHT22;22327;51.208;6.418;2023-09-08T05:49:51;24.50;91.30
36292;DHT22;22327;51.208;6.418;2023-09-08T05:52:51;24.70;90.40
36292;DHT22;22327;51.208;6.418;2023-09-08T05:55:52;24.70;89.70
36292;DHT22;22327;51.208;6.418;2023-09-08T05:58:53;24.70;90.20
36292;DHT22;22327;51.208;6.418;2023-09-08T06:01:53;24.90;88.50
36292;DHT22;22327;51.208;6.418;2023-09-08T06:04:54;25.20;88.30
36292;DHT22;22327;51.208;6.418;2023-09-08T06:07:54;25.40;87.10
36292;DHT22;22327;51.208;6.418;2023-09-08T06:10:55;25.80;86.70
36292;DHT22;22327;51.208;6.418;2023-09-08T06:13:55;26.10;83.50
36292;DHT22;22327;51.208;6.418;2023-09-08T06:16:59;26.20;83.10
36292;DHT22;22327;51.208;6.418;2023-09-08T06:19:59;26.30;82.90
36292;DHT22;22327;51.208;6.418;2023-09-08T06:23:00;26.80;83.00
36292;DHT22;22327;51.208;6.418;2023-09-08T06:26:01;27.60;81.10
36292;DHT22;22327;51.208;6.418;2023-09-08T06:29:01;28.40;76.10
36292;DHT22;22327;51.208;6.418;2023-09-08T06:32:02;29.30;74.40
36292;DHT22;22327;51.208;6.418;2023-09-08T06:35:03;30.00;71.80
36292;DHT22;22327;51.208;6.418;2023-09-08T06:38:03;30.70;67.40
36292;DHT22;22327;51.208;6.418;2023-09-08T06:41:11;31.30;65.30
36292;DHT22;22327;51.208;6.418;2023-09-08T06:44:11;31.60;60.60
36292;DHT22;22327;51.208;6.418;2023-09-08T06:47:12;32.00;59.50
36292;DHT22;22327;51.208;6.418;2023-09-08T06:50:12;32.30;58.10
36292;DHT22;22327;51.208;6.418;2023-09-08T06:53:13;32.40;56.90
36292;DHT22;22327;51.208;6.418;2023-09-08T06:56:14;32.20;56.20
36292;DHT22;22327;51.208;6.418;2023-09-08T06:59:14;31.90;56.30
36292;DHT22;22327;51.208;6.418;2023-09-08T07:02:15;31.30;56.50
36292;DHT22;22327;51.208;6.418;2023-09-08T07:05:16;30.30;57.60
36292;DHT22;22327;51.208;6.418;2023-09-08T07:08:16;29.80;59.20
36292;DHT22;22327;51.208;6.418;2023-09-08T07:11:18;29.30;60.40
36292;DHT22;22327;51.208;6.418;2023-09-08T07:14:18;28.70;61.80
36292;DHT22;22327;51.208;6.418;2023-09-08T07:17:19;28.40;63.40
36292;DHT22;22327;51.208;6.418;2023-09-08T07:20:20;28.10;64.50
36292;DHT22;22327;51.208;6.418;2023-09-08T07:23:20;28.00;65.40
36292;DHT22;22327;51.208;6.418;2023-09-08T07:26:21;28.00;65.50
36292;DHT22;22327;51.208;6.418;2023-09-08T07:29:21;28.20;67.00
36292;DHT22;22327;51.208;6.418;2023-09-08T07:32:22;28.70;67.30
36292;DHT22;22327;51.208;6.418;2023-09-08T07:35:23;29.40;64.50
36292;DHT22;22327;51.208;6.418;2023-09-08T07:38:24;29.90;63.60
36292;DHT22;22327;51.208;6.418;2023-09-08T07:41:25;30.50;60.70
36292;DHT22;22327;51.208;6.418;2023-09-08T07:44:26;31.20;59.90
36292;DHT22;22327;51.208;6.418;2023-09-08T07:47:26;31.20;57.80
36292;DHT22;22327;51.208;6.418;2023-09-08T07:50:28;31.20;58.00
36292;DHT22;22327;51.208;6.418;2023-09-08T07:53:29;31.00;57.50
36292;DHT22;22327;51.208;6.418;2023-09-08T07:56:29;30.80;57.80
36292;DHT22;22327;51.208;6.418;2023-09-08T07:59:30;31.20;58.90
36292;DHT22;22327;51.208;6.418;2023-09-08T08:02:31;32.10;58.40
36292;DHT22;22327;51.208;6.418;2023-09-08T08:05:31;33.20;55.80
36292;DHT22;22327;51.208;6.418;2023-09-08T08:08:32;33.70;54.60
36292;DHT22;22327;51.208;6.418;2023-09-08T08:11:33;34.30;52.20
36292;DHT22;22327;51.208;6.418;2023-09-08T08:14:33;34.40;50.80
36292;DHT22;22327;51.208;6.418;2023-09-08T08:17:34;34.50;49.70
36292;DHT22;22327;51.208;6.418;2023-09-08T08:20:34;34.40;49.20
36292;DHT22;22327;51.208;6.418;2023-09-08T08:23:35;34.80;49.80
36292;DHT22;22327;51.208;6.418;2023-09-08T08:26:38;35.80;49.30
36292;DHT22;22327;51.208;6.418;2023-09-08T08:29:39;36.70;47.70
36292;DHT22;22327;51.208;6.418;2023-09-08T08:32:40;36.90;44.90
36292;DHT22;22327;51.208;6.418;2023-09-08T08:35:40;37.20;44.70
36292;DHT22;22327;51.208;6.418;2023-09-08T08:38:41;37.90;44.50
36292;DHT22;22327;51.208;6.418;2023-09-08T08:41:41;38.70;42.80
36292;DHT22;22327;51.208;6.418;2023-09-08T08:44:42;39.40;41.20
36292;DHT22;22327;51.208;6.418;2023-09-08T08:47:44;39.70;40.80
36292;DHT22;22327;51.208;6.418;2023-09-08T08:50:45;39.90;39.10
36292;DHT22;22327;51.208;6.418;2023-09-08T08:53:45;39.40;38.60
36292;DHT22;22327;51.208;6.418;2023-09-08T08:56:46;39.00;39.60
36292;DHT22;22327;51.208;6.418;2023-09-08T08:59:47;38.80;40.00
36292;DHT22;22327;51.208;6.418;2023-09-08T09:02:49;38.90;39.70
36292;DHT22;22327;51.208;6.418;2023-09-08T09:05:51;39.10;39.90
36292;DHT22;22327;51.208;6.418;2023-09-08T09:08:53;39.60;39.10
36292;DHT22;22327;51.208;6.418;2023-09-08T09:11:53;39.90;38.10
36292;DHT22;22327;51.208;6.418;2023-09-08T09:14:54;39.80;38.20
36292;DHT22;22327;51.208;6.418;2023-09-08T09:18:05;39.80;37.80
36292;DHT22;22327;51.208;6.418;2023-09-08T09:21:05;40.60;37.20
36292;DHT22;22327;51.208;6.418;2023-09-08T09:24:06;41.00;36.20
36292;DHT22;22327;51.208;6.418;2023-09-08T09:27:07;41.10;35.30
36292;DHT22;22327;51.208;6.418;2023-09-08T09:30:08;41.30;36.20
36292;DHT22;22327;51.208;6.418;2023-09-08T09:33:09;41.80;35.50
36292;DHT22;22327;51.208;6.418;2023-09-08T09:36:20;42.10;35.20
36292;DHT22;22327;51.208;6.418;2023-09-08T09:39:21;42.70;34.20
36292;DHT22;22327;51.208;6.418;2023-09-08T09:42:22;43.00;33.60
36292;DHT22;22327;51.208;6.418;2023-09-08T09:45:25;43.00;32.60
36292;DHT22;22327;51.208;6.418;2023-09-08T09:48:25;42.50;33.10
36292;DHT22;22327;51.208;6.418;2023-09-08T09:51:27;41.60;34.00
36292;DHT22;22327;51.208;6.418;2023-09-08T09:54:29;40.30;35.00
36292;DHT22;22327;51.208;6.418;2023-09-08T09:57:30;38.90;36.80
36292;DHT22;22327;51.208;6.418;2023-09-08T10:00:33;37.10;38.70
36292;DHT22;22327;51.208;6.418;2023-09-08T10:03:35;36.10;40.40
36292;DHT22;22327;51.208;6.418;2023-09-08T10:06:36;35.50;42.20
36292;DHT22;22327;51.208;6.418;2023-09-08T10:09:37;35.00;43.10
36292;DHT22;22327;51.208;6.418;2023-09-08T10:12:38;34.50;45.00
36292;DHT22;22327;51.208;6.418;2023-09-08T10:15:42;34.10;45.20
36292;DHT22;22327;51.208;6.418;2023-09-08T10:18:45;33.90;46.00
36292;DHT22;22327;51.208;6.418;2023-09-08T10:21:47;33.50;47.30
36292;DHT22;22327;51.208;6.418;2023-09-08T10:24:50;33.10;48.50
36292;DHT22;22327;51.208;6.418;2023-09-08T10:27:52;32.70;49.20
36292;DHT22;22327;51.208;6.418;2023-09-08T10:30:54;32.60;49.30
36292;DHT22;22327;51.208;6.418;2023-09-08T10:33:55;32.60;49.10
36292;DHT22;22327;51.208;6.418;2023-09-08T10:36:57;32.40;50.40
36292;DHT22;22327;51.208;6.418;2023-09-08T10:43:20;32.20;50.80
36292;DHT22;22327;51.208;6.418;2023-09-08T10:46:21;32.20;51.00
36292;DHT22;22327;51.208;6.418;2023-09-08T10:49:23;32.10;51.00
36292;DHT22;22327;51.208;6.418;2023-09-08T10:52:25;32.00;51.20
36292;DHT22;22327;51.208;6.418;2023-09-08T10:55:36;31.90;51.10
36292;DHT22;22327;51.208;6.418;2023-09-08T10:58:37;31.90;51.60
36292;DHT22;22327;51.208;6.418;2023-09-08T11:01:40;31.90;52.00
36292;DHT22;22327;51.208;6.418;2023-09-08T11:04:41;31.80;51.50
36292;DHT22;22327;51.208;6.418;2023-09-08T11:07:47;31.80;51.80
36292;DHT22;22327;51.208;6.418;2023-09-08T11:10:49;31.60;52.40
36292;DHT22;22327;51.208;6.418;2023-09-08T11:13:51;31.50;52.80
36292;DHT22;22327;51.208;6.418;2023-09-08T11:16:51;31.60;53.20
36292;DHT22;22327;51.208;6.418;2023-09-08T11:19:52;31.50;52.90
36292;DHT22;22327;51.208;6.418;2023-09-08T11:22:53;31.50;53.80
36292;DHT22;22327;51.208;6.418;2023-09-08T11:25:53;31.50;54.10
36292;DHT22;22327;51.208;6.418;2023-09-08T11:28:54;31.50;53.70
36292;DHT22;22327;51.208;6.418;2023-09-08T11:31:55;31.50;54.30
36292;DHT22;22327;51.208;6.418;2023-09-08T11:34:55;31.50;53.70
36292;DHT22;22327;51.208;6.418;2023-09-08T11:37:59;31.50;53.10
36292;DHT22;22327;51.208;6.418;2023-09-08T11:40:59;31.40;53.70
36292;DHT22;22327;51.208;6.418;2023-09-08T11:44:00;31.30;53.80
36292;DHT22;22327;51.208;6.418;2023-09-08T11:47:06;31.50;53.80
36292;DHT22;22327;51.208;6.418;2023-09-08T11:50:08;31.60;53.60
36292;DHT22;22327;51.208;6.418;2023-09-08T11:53:09;31.60;53.80
36292;DHT22;22327;51.208;6.418;2023-09-08T11:56:10;31.70;53.70
36292;DHT22;22327;51.208;6.418;2023-09-08T11:59:10;31.60;52.60
36292;DHT22;22327;51.208;6.418;2023-09-08T12:02:11;31.80;53.00
36292;DHT22;22327;51.208;6.418;2023-09-08T12:05:23;31.90;53.30
36292;DHT22;22327;51.208;6.418;2023-09-08T12:08:25;32.10;52.40
36292;DHT22;22327;51.208;6.418;2023-09-08T12:11:32;32.10;52.30
36292;DHT22;22327;51.208;6.418;2023-09-08T12:14:42;32.20;51.90
36292;DHT22;22327;51.208;6.418;2023-09-08T12:17:49;32.20;52.20
36292;DHT22;22327;51.208;6.418;2023-09-08T12:21:03;32.20;51.90
36292;DHT22;22327;51.208;6.418;2023-09-08T12:24:05;32.10;51.40
36292;DHT22;22327;51.208;6.418;2023-09-08T12:27:06;32.10;52.40
36292;DHT22;22327;51.208;6.418;2023-09-08T12:30:06;32.00;52.10
36292;DHT22;22327;51.208;6.418;2023-09-08T12:33:09;31.90;51.90
36292;DHT22;22327;51.208;6.418;2023-09-08T12:36:15;32.00;52.20
36292;DHT22;22327;51.208;6.418;2023-09-08T12:39:15;32.10;51.90
36292;DHT22;22327;51.208;6.418;2023-09-08T12:42:19;32.10;51.90
36292;DHT22;22327;51.208;6.418;2023-09-08T12:45:23;32.20;52.00
36292;DHT22;22327;51.208;6.418;2023-09-08T12:48:24;32.20;51.90
36292;DHT22;22327;51.208;6.418;2023-09-08T12:51:25;32.30;52.10
36292;DHT22;22327;51.208;6.418;2023-09-08T12:54:25;32.40;51.90
36292;DHT22;22327;51.208;6.418;2023-09-08T12:57:25;32.50;51.90
36292;DHT22;22327;51.208;6.418;2023-09-08T13:00:26;32.50;51.60
36292;DHT22;22327;51.208;6.418;2023-09-08T13:03:28;32.40;51.90
36292;DHT22;22327;51.208;6.418;2023-09-08T13:06:29;32.50;51.70
36292;DHT22;22327;51.208;6.418;2023-09-08T13:09:29;32.70;51.50
36292;DHT22;22327;51.208;6.418;2023-09-08T13:12:30;32.60;52.00
36292;DHT22;22327;51.208;6.418;2023-09-08T13:15:31;32.70;51.70
36292;DHT22;22327;51.208;6.418;2023-09-08T13:18:32;32.70;51.50
36292;DHT22;22327;51.208;6.418;2023-09-08T13:21:37;32.70;51.50
36292;DHT22;22327;51.208;6.418;2023-09-08T13:24:38;32.70;51.40
36292;DHT22;22327;51.208;6.418;2023-09-08T13:27:42;32.70;51.00
36292;DHT22;22327;51.208;6.418;2023-09-08T13:30:42;32.80;50.90
36292;DHT22;22327;51.208;6.418;2023-09-08T13:33:43;32.80;51.20
36292;DHT22;22327;51.208;6.418;2023-09-08T13:36:44;32.70;51.20
36292;DHT22;22327;51.208;6.418;2023-09-08T13:39:44;32.70;51.30
36292;DHT22;22327;51.208;6.418;2023-09-08T13:42:45;32.70;51.10
36292;DHT22;22327;51.208;6.418;2023-09-08T13:45:45;32.80;51.30
36292;DHT22;22327;51.208;6.418;2023-09-08T13:48:46;32.80;51.20
36292;DHT22;22327;51.208;6.418;2023-09-08T13:51:46;32.90;51.00
36292;DHT22;22327;51.208;6.418;2023-09-08T13:54:47;33.00;51.40
36292;DHT22;22327;51.208;6.418;2023-09-08T13:57:47;33.10;51.70
36292;DHT22;22327;51.208;6.418;2023-09-08T14:00:48;33.10;50.70
36292;DHT22;22327;51.208;6.418;2023-09-08T14:03:51;33.20;50.70
36292;DHT22;22327;51.208;6.418;2023-09-08T14:06:52;33.20;50.70
36292;DHT22;22327;51.208;6.418;2023-09-08T14:09:52;33.00;51.40
36292;DHT22;22327;51.208;6.418;2023-09-08T14:12:53;33.00;51.10
36292;DHT22;22327;51.208;6.418;2023-09-08T14:15:54;33.10;50.80
36292;DHT22;22327;51.208;6.418;2023-09-08T14:18:54;33.20;51.60
36292;DHT22;22327;51.208;6.418;2023-09-08T14:21:55;33.30;51.70
36292;DHT22;22327;51.208;6.418;2023-09-08T14:24:55;33.30;52.10
36292;DHT22;22327;51.208;6.418;2023-09-08T14:27:56;33.20;51.90
36292;DHT22;22327;51.208;6.418;2023-09-08T14:30:56;33.10;52.30
36292;DHT22;22327;51.208;6.418;2023-09-08T14:33:57;33.00;52.60
36292;DHT22;22327;51.208;6.418;2023-09-08T14:36:58;32.90;53.00
36292;DHT22;22327;51.208;6.418;2023-09-08T14:39:58;32.80;53.00
36292;DHT22;22327;51.208;6.418;2023-09-08T14:42:59;32.80;52.60
36292;DHT22;22327;51.208;6.418;2023-09-08T14:45:59;32.80;52.20
36292;DHT22;22327;51.208;6.418;2023-09-08T14:49:03;33.00;52.10
36292;DHT22;22327;51.208;6.418;2023-09-08T14:52:03;33.00;51.80
36292;DHT22;22327;51.208;6.418;2023-09-08T14:55:04;33.20;51.60
36292;DHT22;22327;51.208;6.418;2023-09-08T14:58:05;33.20;51.50
36292;DHT22;22327;51.208;6.418;2023-09-08T15:01:05;33.20;51.20
36292;DHT22;22327;51.208;6.418;2023-09-08T15:04:08;33.20;51.70
36292;DHT22;22327;51.208;6.418;2023-09-08T15:07:08;33.20;52.30
36292;DHT22;22327;51.208;6.418;2023-09-08T15:10:09;33.20;51.90
36292;DHT22;22327;51.208;6.418;2023-09-08T15:13:10;33.10;51.90
36292;DHT22;22327;51.208;6.418;2023-09-08T15:16:10;33.00;52.10
36292;DHT22;22327;51.208;6.418;2023-09-08T15:19:11;33.00;51.80
36292;DHT22;22327;51.208;6.418;2023-09-08T15:22:12;33.00;51.60
36292;DHT22;22327;51.208;6.418;2023-09-08T15:25:13;33.10;51.90
36292;DHT22;22327;51.208;6.418;2023-09-08T15:28:13;33.20;51.90
36292;DHT22;22327;51.208;6.418;2023-09-08T15:31:17;33.30;52.20
36292;DHT22;22327;51.208;6.418;2023-09-08T15:34:18;33.10;53.50
36292;DHT22;22327;51.208;6.418;2023-09-08T15:37:18;33.00;55.10
36292;DHT22;22327;51.208;6.418;2023-09-08T15:40:19;32.80;55.90
36292;DHT22;22327;51.208;6.418;2023-09-08T15:43:20;32.80;56.30
36292;DHT22;22327;51.208;6.418;2023-09-08T15:46:20;32.70;56.30
36292;DHT22;22327;51.208;6.418;2023-09-08T15:49:21;32.70;55.90
36292;DHT22;22327;51.208;6.418;2023-09-08T15:52:21;32.70;55.70
36292;DHT22;22327;51.208;6.418;2023-09-08T15:55:22;32.70;54.60
36292;DHT22;22327;51.208;6.418;2023-09-08T15:58:23;32.80;54.90
36292;DHT22;22327;51.208;6.418;2023-09-08T16:01:23;32.80;55.10
36292;DHT22;22327;51.208;6.418;2023-09-08T16:04:24;32.80;55.00
36292;DHT22;22327;51.208;6.418;2023-09-08T16:07:24;32.80;55.20
36292;DHT22;22327;51.208;6.418;2023-09-08T16:10:25;32.80;55.60
36292;DHT22;22327;51.208;6.418;2023-09-08T16:13:26;32.70;54.60
36292;DHT22;22327;51.208;6.418;2023-09-08T16:16:26;32.80;54.80
36292;DHT22;22327;51.208;6.418;2023-09-08T16:19:27;32.90;54.70
36292;DHT22;22327;51.208;6.418;2023-09-08T16:22:29;32.90;54.70
36292;DHT22;22327;51.208;6.418;2023-09-08T16:25:29;33.00;54.80
36292;DHT22;22327;51.208;6.418;2023-09-08T16:28:30;33.00;54.80
36292;DHT22;22327;51.208;6.418;2023-09-08T16:31:31;33.00;54.60
36292;DHT22;22327;51.208;6.418;2023-09-08T16:34:31;33.00;54.80
36292;DHT22;22327;51.208;6.418;2023-09-08T16:37:32;32.90;54.60
36292;DHT22;22327;51.208;6.418;2023-09-08T16:40:32;32.80;54.60
36292;DHT22;22327;51.208;6.418;2023-09-08T16:43:33;32.80;54.80
36292;DHT22;22327;51.208;6.418;2023-09-08T16:46:33;32.80;54.70
36292;DHT22;22327;51.208;6.418;2023-09-08T16:49:35;32.70;54.90
36292;DHT22;22327;51.208;6.418;2023-09-08T16:52:35;32.70;54.90
36292;DHT22;22327;51.208;6.418;2023-09-08T16:55:36;32.70;54.90
36292;DHT22;22327;51.208;6.418;2023-09-08T16:58:37;32.70;54.90
36292;DHT22;22327;51.208;6.418;2023-09-08T17:01:38;32.60;55.00
36292;DHT22;22327;51.208;6.418;2023-09-08T17:04:38;32.60;55.30
36292;DHT22;22327;51.208;6.418;2023-09-08T17:07:41;32.60;54.70
36292;DHT22;22327;51.208;6.418;2023-09-08T17:10:42;32.50;55.50
36292;DHT22;22327;51.208;6.418;2023-09-08T17:13:43;32.50;56.10
36292;DHT22;22327;51.208;6.418;2023-09-08T17:16:43;32.50;56.30
36292;DHT22;22327;51.208;6.418;2023-09-08T17:19:44;32.40;56.60
36292;DHT22;22327;51.208;6.418;2023-09-08T17:22:44;32.40;56.60
36292;DHT22;22327;51.208;6.418;2023-09-08T17:25:45;32.30;56.90
36292;DHT22;22327;51.208;6.418;2023-09-08T17:28:46;32.20;57.10
36292;DHT22;22327;51.208;6.418;2023-09-08T17:31:47;32.20;57.20
36292;DHT22;22327;51.208;6.418;2023-09-08T17:34:47;32.20;58.00
36292;DHT22;22327;51.208;6.418;2023-09-08T17:37:47;32.20;57.50
36292;DHT22;22327;51.208;6.418;2023-09-08T17:40:48;32.10;57.60
36292;DHT22;22327;51.208;6.418;2023-09-08T17:43:48;32.00;58.00
36292;DHT22;22327;51.208;6.418;2023-09-08T17:46:49;31.80;58.40
36292;DHT22;22327;51.208;6.418;2023-09-08T17:49:50;31.70;58.10
36292;DHT22;22327;51.208;6.418;2023-09-08T17:52:50;31.60;58.80
36292;DHT22;22327;51.208;6.418;2023-09-08T17:55:51;31.40;60.40
36292;DHT22;22327;51.208;6.418;2023-09-08T17:58:51;31.30;61.20
36292;DHT22;22327;51.208;6.418;2023-09-08T18:01:52;31.10;62.40
36292;DHT22;22327;51.208;6.418;2023-09-08T18:04:52;30.90;63.00
36292;DHT22;22327;51.208;6.418;2023-09-08T18:07:53;30.70;64.10
36292;DHT22;22327;51.208;6.418;2023-09-08T18:11:01;30.60;64.00
36292;DHT22;22327;51.208;6.418;2023-09-08T18:14:02;30.40;64.40
36292;DHT22;22327;51.208;6.418;2023-09-08T18:17:02;30.20;65.30
36292;DHT22;22327;51.208;6.418;2023-09-08T18:20:04;30.10;65.70
36292;DHT22;22327;51.208;6.418;2023-09-08T18:23:05;30.00;66.00
36292;DHT22;22327;51.208;6.418;2023-09-08T18:26:06;29.90;66.70
36292;DHT22;22327;51.208;6.418;2023-09-08T18:29:06;29.80;67.50
36292;DHT22;22327;51.208;6.418;2023-09-08T18:32:07;29.70;68.30
36292;DHT22;22327;51.208;6.418;2023-09-08T18:35:08;29.50;69.70
36292;DHT22;22327;51.208;6.418;2023-09-08T18:38:08;29.40;70.40
36292;DHT22;22327;51.208;6.418;2023-09-08T18:41:09;29.30;71.40
36292;DHT22;22327;51.208;6.418;2023-09-08T18:44:09;29.10;71.80
36292;DHT22;22327;51.208;6.418;2023-09-08T18:47:10;29.10;72.20
36292;DHT22;22327;51.208;6.418;2023-09-08T18:50:11;29.00;72.60
36292;DHT22;22327;51.208;6.418;2023-09-08T18:53:12;28.90;73.40
36292;DHT22;22327;51.208;6.418;2023-09-08T18:56:12;28.80;73.90
36292;DHT22;22327;51.208;6.418;2023-09-08T18:59:17;28.80;74.70
36292;DHT22;22327;51.208;6.418;2023-09-08T19:02:18;28.60;75.50
36292;DHT22;22327;51.208;6.418;2023-09-08T19:05:18;28.50;76.30
36292;DHT22;22327;51.208;6.418;2023-09-08T19:08:19;28.50;77.00
36292;DHT22;22327;51.208;6.418;2023-09-08T19:11:19;28.40;77.60